createdAt,value
2023-03-11T00:00:18.368Z,0.70
2023-03-11T00:02:46.476Z,0.75
2023-03-11T00:05:17.238Z,0.85
2023-03-11T00:07:43.917Z,0.68
2023-03-11T00:10:21.825Z,0.65
2023-03-11T00:12:48.605Z,0.50
2023-03-11T00:15:15.172Z,0.80
2023-03-11T00:17:41.948Z,0.60
2023-03-11T00:20:11.659Z,0.70
2023-03-11T00:22:38.209Z,0.60
2023-03-11T00:25:05.085Z,0.60
2023-03-11T00:27:31.680Z,0.70
2023-03-11T00:29:58.289Z,0.90
2023-03-11T00:32:24.876Z,0.70
2023-03-11T00:34:51.478Z,0.60
2023-03-11T00:37:18.115Z,0.70
2023-03-11T00:39:44.667Z,0.60
2023-03-11T00:42:11.279Z,0.70
2023-03-11T00:44:39.014Z,0.70
2023-03-11T00:47:05.789Z,1.35
2023-03-11T00:49:32.825Z,0.60
2023-03-11T00:51:59.430Z,0.70
2023-03-11T00:54:26.010Z,0.60
2023-03-11T00:56:52.641Z,0.73
2023-03-11T00:59:19.401Z,0.80
2023-03-11T01:01:46.119Z,0.60
2023-03-11T01:04:12.701Z,0.60
2023-03-11T01:06:45.051Z,0.60
2023-03-11T01:09:11.985Z,0.60
2023-03-11T01:11:38.641Z,0.70
2023-03-11T01:14:05.288Z,0.68
2023-03-11T01:16:32.136Z,0.68
2023-03-11T01:18:58.823Z,0.65
2023-03-11T01:21:25.918Z,0.60
2023-03-11T01:23:52.617Z,0.55
2023-03-11T01:26:19.194Z,0.65
2023-03-11T01:28:45.752Z,0.77
2023-03-11T01:31:12.641Z,0.65
2023-03-11T01:33:39.902Z,0.60
2023-03-11T01:36:07.025Z,0.70
2023-03-11T01:38:33.600Z,0.70
2023-03-11T01:41:00.202Z,0.65
2023-03-11T01:43:45.178Z,0.70
2023-03-11T01:46:20.184Z,0.70
2023-03-11T01:48:52.201Z,0.65
2023-03-11T01:51:35.903Z,0.60
2023-03-11T01:54:06.479Z,0.60
2023-03-11T01:56:33.393Z,0.60
2023-03-11T01:59:00.271Z,0.55
2023-03-11T02:01:26.955Z,0.50
2023-03-11T02:03:54.371Z,0.60
2023-03-11T02:06:23.068Z,0.43
2023-03-11T02:08:50.761Z,0.40
2023-03-11T02:11:26.738Z,0.40
2023-03-11T02:13:54.761Z,0.50
2023-03-11T02:16:21.442Z,0.55
2023-03-11T02:18:48.131Z,0.40
2023-03-11T02:21:28.241Z,0.47
2023-03-11T02:23:57.848Z,0.40
2023-03-11T02:26:51.930Z,0.40
2023-03-11T02:29:19.578Z,0.50
2023-03-11T02:31:46.980Z,0.40
2023-03-11T02:34:24.795Z,0.40
2023-03-11T02:36:51.745Z,0.40
2023-03-11T02:39:34.302Z,0.35
2023-03-11T02:42:05.310Z,0.45
2023-03-11T02:44:31.905Z,0.50
2023-03-11T02:46:59.893Z,0.30
2023-03-11T02:49:27.142Z,0.32
2023-03-11T02:51:53.888Z,0.50
2023-03-11T02:54:20.521Z,0.40
2023-03-11T02:56:47.178Z,0.50
2023-03-11T02:59:13.764Z,0.40
2023-03-11T03:01:40.530Z,0.35
2023-03-11T03:04:07.166Z,0.40
2023-03-11T03:06:33.948Z,0.40
2023-03-11T03:09:00.574Z,0.52
2023-03-11T03:11:27.534Z,0.40
2023-03-11T03:13:54.203Z,0.30
2023-03-11T03:16:20.944Z,0.50
2023-03-11T03:18:48.040Z,0.40
2023-03-11T03:21:14.628Z,0.40
2023-03-11T03:23:41.476Z,0.40
2023-03-11T03:26:08.035Z,0.40
2023-03-11T03:28:37.480Z,0.47
2023-03-11T03:31:07.541Z,0.50
2023-03-11T03:33:35.753Z,0.60
2023-03-11T03:36:07.262Z,0.60
2023-03-11T03:38:39.285Z,0.40
2023-03-11T03:41:06.059Z,0.40
2023-03-11T03:43:34.824Z,0.47
2023-03-11T03:46:04.344Z,0.40
2023-03-11T03:48:37.392Z,0.40
2023-03-11T03:51:08.919Z,0.43
2023-03-11T03:53:38.398Z,0.43
2023-03-11T03:56:07.663Z,0.50
2023-03-11T03:58:36.013Z,0.40
2023-03-11T04:01:04.100Z,0.40
2023-03-11T04:03:31.888Z,0.50
2023-03-11T04:06:11.049Z,0.47
2023-03-11T04:08:38.027Z,0.55
2023-03-11T04:11:04.843Z,0.45
2023-03-11T04:13:33.782Z,0.43
2023-03-11T04:16:00.404Z,0.40
2023-03-11T04:18:27.020Z,0.32
2023-03-11T04:20:54.204Z,0.40
2023-03-11T04:23:21.006Z,0.47
2023-03-11T04:25:47.636Z,0.40
2023-03-11T04:28:14.772Z,0.47
2023-03-11T04:30:43.336Z,0.30
2023-03-11T04:33:10.042Z,0.63
2023-03-11T04:35:40.685Z,0.30
2023-03-11T04:38:07.524Z,0.45
2023-03-11T04:40:34.960Z,0.40
2023-03-11T04:43:01.545Z,0.40
2023-03-11T04:45:28.343Z,0.30
2023-03-11T04:47:57.525Z,0.50
2023-03-11T04:50:24.202Z,0.50
2023-03-11T04:52:51.705Z,0.40
2023-03-11T04:55:18.379Z,0.40
2023-03-11T04:57:44.969Z,0.32
2023-03-11T05:00:15.770Z,0.40
2023-03-11T05:02:46.059Z,0.45
2023-03-11T05:05:13.036Z,0.30
2023-03-11T05:07:41.068Z,0.40
2023-03-11T05:10:09.292Z,0.32
2023-03-11T05:12:37.325Z,0.40
2023-03-11T05:15:04.339Z,0.40
2023-03-11T05:17:31.175Z,0.38
2023-03-11T05:19:57.981Z,0.40
2023-03-11T05:22:30.068Z,0.40
2023-03-11T05:24:56.631Z,0.40
2023-03-11T05:27:23.628Z,0.40
2023-03-11T05:29:54.207Z,0.30
2023-03-11T05:32:22.326Z,0.22
2023-03-11T05:34:49.891Z,0.20
2023-03-11T05:37:17.400Z,0.30
2023-03-11T05:39:45.621Z,0.55
2023-03-11T05:42:13.277Z,0.47
2023-03-11T05:44:41.480Z,0.30
2023-03-11T05:47:08.436Z,0.28
2023-03-11T05:49:35.726Z,0.30
2023-03-11T05:52:02.868Z,0.30
2023-03-11T05:54:31.283Z,0.25
2023-03-11T05:56:57.918Z,0.35
2023-03-11T05:59:25.249Z,0.30
2023-03-11T06:02:00.045Z,0.40
2023-03-11T06:04:27.301Z,0.40
2023-03-11T06:06:54.056Z,0.40
2023-03-11T06:09:23.402Z,0.40
2023-03-11T06:11:51.224Z,0.40
2023-03-11T06:14:19.835Z,0.20
2023-03-11T06:16:49.306Z,0.40
2023-03-11T06:19:17.982Z,0.40
2023-03-11T06:21:48.321Z,0.40
2023-03-11T06:24:17.031Z,0.30
2023-03-11T06:26:44.320Z,0.38
2023-03-11T06:29:14.372Z,0.45
2023-03-11T06:31:42.147Z,0.30
2023-03-11T06:34:11.883Z,0.30
2023-03-11T06:36:38.784Z,0.30
2023-03-11T06:39:05.669Z,0.40
2023-03-11T06:41:35.542Z,0.45
2023-03-11T06:44:04.974Z,0.30
2023-03-11T06:46:32.411Z,0.40
2023-03-11T06:48:59.587Z,0.30
2023-03-11T06:51:27.556Z,0.30
2023-03-11T06:53:54.724Z,0.30
2023-03-11T06:56:23.350Z,0.40
2023-03-11T06:58:55.804Z,0.40
2023-03-11T07:01:25.954Z,0.30
2023-03-11T07:03:55.207Z,0.30
2023-03-11T07:06:25.303Z,0.45
2023-03-11T07:11:26.964Z,0.30
2023-03-11T07:13:59.388Z,0.30
2023-03-11T07:16:30.501Z,0.30
2023-03-11T07:19:03.914Z,0.20
2023-03-11T07:21:31.772Z,0.50
2023-03-11T07:24:00.452Z,0.40
2023-03-11T07:26:28.182Z,0.40
2023-03-11T07:28:58.498Z,0.20
2023-03-11T07:31:30.626Z,0.20
2023-03-11T07:34:01.105Z,0.30
2023-03-11T07:36:28.615Z,0.32
2023-03-11T07:39:03.114Z,0.30
2023-03-11T07:41:32.440Z,0.20
2023-03-11T07:44:00.229Z,0.20
2023-03-11T07:46:28.362Z,0.50
2023-03-11T07:48:55.278Z,1.15
2023-03-11T07:51:25.076Z,0.45
2023-03-11T07:53:53.596Z,0.70
2023-03-11T07:56:21.223Z,0.40
2023-03-11T07:58:47.817Z,0.40
2023-03-11T08:01:16.874Z,0.40
2023-03-11T08:03:48.119Z,0.60
2023-03-11T08:06:20.751Z,0.20
2023-03-11T08:08:48.165Z,0.50
2023-03-11T08:11:15.636Z,0.65
2023-03-11T08:13:43.580Z,0.50
2023-03-11T08:16:12.585Z,0.60
2023-03-11T08:18:39.364Z,0.50
2023-03-11T08:21:07.390Z,0.50
2023-03-11T08:23:34.117Z,0.52
2023-03-11T08:26:05.495Z,1.30
2023-03-11T08:28:32.817Z,0.90
2023-03-11T08:31:00.209Z,0.80
2023-03-11T08:33:27.879Z,0.50
2023-03-11T08:35:54.858Z,0.60
2023-03-11T08:38:21.676Z,0.80
2023-03-11T08:40:48.228Z,0.70
2023-03-11T08:43:15.348Z,0.50
2023-03-11T08:45:42.527Z,0.65
2023-03-11T08:48:12.357Z,0.60
2023-03-11T08:50:53.434Z,0.47
2023-03-11T08:53:22.014Z,0.45
2023-03-11T08:55:49.950Z,0.50
2023-03-11T08:58:16.606Z,0.50
2023-03-11T09:00:43.184Z,0.40
2023-03-11T09:03:10.127Z,0.43
2023-03-11T09:05:37.198Z,0.43
2023-03-11T09:08:05.709Z,0.30
2023-03-11T09:10:32.569Z,0.40
2023-03-11T09:12:59.221Z,0.65
2023-03-11T09:15:25.842Z,0.52
2023-03-11T09:17:53.098Z,0.40
2023-03-11T09:20:20.313Z,0.60
2023-03-11T09:22:47.109Z,0.50
2023-03-11T09:25:14.235Z,0.45
2023-03-11T09:27:41.481Z,0.45
2023-03-11T09:30:09.797Z,0.80
2023-03-11T09:32:37.604Z,0.60
2023-03-11T09:35:05.044Z,0.63
2023-03-11T09:37:32.115Z,1.00
2023-03-11T09:39:58.716Z,0.63
2023-03-11T09:42:44.201Z,0.50
2023-03-11T09:45:30.969Z,0.43
2023-03-11T09:48:03.546Z,0.60
2023-03-11T09:50:31.536Z,0.65
2023-03-11T09:53:18.435Z,0.52
2023-03-11T09:55:56.855Z,0.50
2023-03-11T09:58:47.040Z,0.50
2023-03-11T10:01:21.601Z,0.60
2023-03-11T10:03:50.561Z,0.50
2023-03-11T10:06:17.055Z,0.75
2023-03-11T10:08:46.829Z,0.50
2023-03-11T10:11:30.841Z,0.52
2023-03-11T10:13:57.657Z,0.40
2023-03-11T10:17:11.958Z,0.60
2023-03-11T10:19:46.907Z,0.55
2023-03-11T10:24:58.201Z,0.40
2023-03-11T10:28:01.854Z,0.50
2023-03-11T10:30:43.777Z,0.60
2023-03-11T10:33:23.969Z,0.50
2023-03-11T10:35:54.161Z,0.40
2023-03-11T10:38:23.559Z,0.50
2023-03-11T10:40:57.462Z,0.60
2023-03-11T10:43:29.426Z,0.70
2023-03-11T10:45:56.099Z,0.50
2023-03-11T10:48:24.905Z,0.50
2023-03-11T10:51:01.377Z,0.52
2023-03-11T10:53:28.831Z,0.45
2023-03-11T10:55:57.847Z,0.60
2023-03-11T10:58:27.305Z,0.68
2023-03-11T11:01:15.307Z,0.50
2023-03-11T11:03:50.387Z,0.63
2023-03-11T11:06:21.940Z,0.60
2023-03-11T11:08:48.565Z,0.70
2023-03-11T11:11:24.099Z,0.70
2023-03-11T11:13:57.726Z,0.70
2023-03-11T11:16:24.807Z,0.60
2023-03-11T11:18:57.140Z,0.75
2023-03-11T11:21:35.577Z,0.80
2023-03-11T11:24:14.255Z,0.57
2023-03-11T11:26:40.913Z,0.57
2023-03-11T11:29:10.521Z,0.70
2023-03-11T11:31:39.100Z,0.70
2023-03-11T11:34:27.172Z,0.60
2023-03-11T11:36:54.642Z,0.75
2023-03-11T11:39:21.410Z,0.60
2023-03-11T11:41:49.090Z,0.65
2023-03-11T11:44:18.759Z,0.70
2023-03-11T11:46:51.502Z,0.52
2023-03-11T11:49:30.339Z,0.60
2023-03-11T11:52:06.473Z,0.60
2023-03-11T11:54:39.575Z,0.70
2023-03-11T11:57:13.134Z,0.70
2023-03-11T11:59:40.356Z,0.80
2023-03-11T12:02:48.300Z,1.00
2023-03-11T12:05:29.973Z,1.33
2023-03-11T12:08:18.255Z,0.98
2023-03-11T12:11:05.987Z,0.93
2023-03-11T12:14:00.439Z,0.90
2023-03-11T12:16:35.295Z,0.95
2023-03-11T12:19:13.030Z,0.98
2023-03-11T12:21:54.385Z,0.90
2023-03-11T12:24:30.071Z,0.80
2023-03-11T12:27:02.209Z,0.95
2023-03-11T12:29:33.094Z,0.90
2023-03-11T12:32:01.688Z,0.82
2023-03-11T12:34:29.088Z,1.00
2023-03-11T12:36:57.908Z,0.90
2023-03-11T12:39:30.460Z,0.80
2023-03-11T12:42:25.190Z,1.00
2023-03-11T12:44:51.845Z,0.80
2023-03-11T12:47:23.960Z,0.90
2023-03-11T12:49:54.809Z,0.80
2023-03-11T12:52:28.192Z,1.00
2023-03-11T12:55:01.309Z,0.95
2023-03-11T12:57:32.695Z,0.82
2023-03-11T13:00:12.406Z,0.90
2023-03-11T13:03:09.706Z,0.90
2023-03-11T13:06:13.100Z,0.90
2023-03-11T13:08:51.145Z,0.75
2023-03-11T13:11:32.226Z,0.90
2023-03-11T13:14:23.448Z,0.80
2023-03-11T13:16:50.550Z,0.93
2023-03-11T13:19:26.537Z,0.80
2023-03-11T13:22:00.159Z,1.08
2023-03-11T13:24:27.013Z,1.00
2023-03-11T13:27:04.964Z,1.08
2023-03-11T13:29:54.792Z,1.23
2023-03-11T13:32:58.959Z,0.90
2023-03-11T13:35:40.449Z,0.90
2023-03-11T13:38:09.880Z,1.00
2023-03-11T13:40:40.072Z,0.80
2023-03-11T13:43:16.164Z,0.80
2023-03-11T13:46:07.220Z,0.82
2023-03-11T13:48:40.340Z,1.00
2023-03-11T13:51:14.463Z,1.05
2023-03-11T13:53:45.121Z,0.87
2023-03-11T13:56:22.555Z,0.90
2023-03-11T13:58:49.127Z,0.82
2023-03-11T14:01:16.999Z,0.98
2023-03-11T14:03:45.051Z,0.90
2023-03-11T14:06:18.855Z,0.82
2023-03-11T14:08:57.379Z,0.80
2023-03-11T14:11:29.233Z,0.80
2023-03-11T14:13:55.955Z,0.98
2023-03-11T14:16:33.405Z,0.85
2023-03-11T14:19:14.134Z,0.73
2023-03-11T14:21:47.874Z,0.75
2023-03-11T14:24:18.133Z,0.80
2023-03-11T14:26:45.247Z,1.00
2023-03-11T14:29:16.629Z,0.77
2023-03-11T14:31:44.123Z,0.75
2023-03-11T14:34:10.749Z,0.95
2023-03-11T14:36:43.437Z,0.90
2023-03-11T14:39:29.629Z,1.00
2023-03-11T14:42:00.131Z,0.80
2023-03-11T14:44:27.981Z,0.77
2023-03-11T14:47:04.960Z,1.00
2023-03-11T14:49:31.739Z,0.88
2023-03-11T14:52:02.437Z,1.00
2023-03-11T14:54:31.156Z,0.75
2023-03-11T14:57:10.661Z,0.90
2023-03-11T14:59:37.961Z,1.00
2023-03-11T15:02:44.829Z,0.75
2023-03-11T15:05:34.119Z,1.10
2023-03-11T15:08:03.674Z,1.15
2023-03-11T15:10:30.449Z,0.90
2023-03-11T15:13:14.808Z,0.68
2023-03-11T15:15:41.456Z,0.82
2023-03-11T15:18:24.605Z,0.80
2023-03-11T15:21:14.015Z,0.80
2023-03-11T15:23:45.799Z,0.82
2023-03-11T15:26:30.291Z,0.70
2023-03-11T15:28:59.627Z,0.83
2023-03-11T15:31:37.378Z,0.70
2023-03-11T15:34:10.868Z,0.73
2023-03-11T15:36:43.782Z,0.77
2023-03-11T15:39:30.193Z,0.70
2023-03-11T15:42:00.406Z,0.88
2023-03-11T15:44:26.973Z,0.90
2023-03-11T15:46:53.589Z,1.00
2023-03-11T15:49:20.339Z,0.90
2023-03-11T15:51:47.256Z,0.98
2023-03-11T15:54:13.999Z,0.90
2023-03-11T15:56:41.083Z,1.20
2023-03-11T15:59:12.616Z,1.08
2023-03-11T16:01:39.156Z,1.10
2023-03-11T16:04:11.737Z,0.90
2023-03-11T16:06:38.409Z,1.10
2023-03-11T16:09:05.310Z,0.90
2023-03-11T16:11:32.798Z,1.23
2023-03-11T16:14:43.681Z,1.02
2023-03-11T16:17:14.182Z,1.00
2023-03-11T16:19:44.698Z,0.90
2023-03-11T16:22:23.852Z,1.05
2023-03-11T16:24:52.445Z,1.38
2023-03-11T16:27:19.199Z,1.10
2023-03-11T16:29:46.550Z,1.00
2023-03-11T16:32:13.598Z,0.98
2023-03-11T16:34:40.293Z,1.20
2023-03-11T16:37:07.556Z,1.05
2023-03-11T16:39:34.600Z,1.02
2023-03-11T16:42:01.446Z,1.02
2023-03-11T16:44:28.015Z,1.10
2023-03-11T16:46:54.816Z,1.10
2023-03-11T16:49:21.464Z,1.00
2023-03-11T16:51:48.213Z,0.88
2023-03-11T16:54:16.139Z,1.10
2023-03-11T16:56:42.861Z,1.02
2023-03-11T16:59:09.596Z,0.90
2023-03-11T17:01:38.557Z,1.10
2023-03-11T17:04:08.589Z,0.95
2023-03-11T17:06:35.258Z,0.90
2023-03-11T17:09:01.893Z,0.88
2023-03-11T17:11:30.636Z,0.80
2023-03-11T17:14:13.636Z,0.80
2023-03-11T17:16:41.985Z,0.80
2023-03-11T17:19:11.293Z,0.93
2023-03-11T17:21:37.859Z,0.90
2023-03-11T17:24:04.721Z,0.88
2023-03-11T17:26:31.705Z,0.90
2023-03-11T17:28:58.494Z,0.73
2023-03-11T17:31:25.242Z,0.90
2023-03-11T17:33:51.838Z,0.73
2023-03-11T17:36:19.227Z,0.80
2023-03-11T17:38:47.105Z,1.02
2023-03-11T17:41:16.441Z,0.95
2023-03-11T17:43:43.563Z,0.90
2023-03-11T17:46:14.265Z,0.82
2023-03-11T17:48:44.964Z,0.80
2023-03-11T17:51:14.365Z,0.80
2023-03-11T17:53:45.629Z,0.88
2023-03-11T17:56:13.649Z,1.00
2023-03-11T17:58:40.182Z,0.80
2023-03-11T18:01:09.526Z,1.00
2023-03-11T18:03:36.110Z,0.90
2023-03-11T18:06:05.071Z,0.90
2023-03-11T18:08:32.758Z,1.00
2023-03-11T18:11:02.962Z,0.85
2023-03-11T18:13:30.952Z,0.90
2023-03-11T18:16:12.424Z,0.95
2023-03-11T18:18:40.816Z,1.00
2023-03-11T18:21:10.802Z,0.90
2023-03-11T18:23:38.190Z,0.98
2023-03-11T18:26:07.098Z,0.90
2023-03-11T18:28:34.185Z,0.90
2023-03-11T18:31:12.109Z,0.80
2023-03-11T18:33:38.918Z,1.00
2023-03-11T18:36:20.316Z,0.90
2023-03-11T18:38:47.722Z,0.90
2023-03-11T18:41:15.233Z,0.90
2023-03-11T18:43:41.993Z,0.85
2023-03-11T18:46:10.434Z,0.80
2023-03-11T18:48:37.553Z,0.80
2023-03-11T18:51:04.576Z,0.90
2023-03-11T18:53:31.181Z,1.08
2023-03-11T18:56:02.429Z,0.90
2023-03-11T18:58:29.729Z,0.80
2023-03-11T19:01:03.979Z,0.90
2023-03-11T19:03:30.637Z,0.90
2023-03-11T19:05:57.508Z,0.90
2023-03-11T19:08:24.643Z,0.90
2023-03-11T19:10:51.281Z,0.80
2023-03-11T19:13:19.318Z,0.82
2023-03-11T19:15:46.672Z,1.00
2023-03-11T19:18:13.902Z,0.82
2023-03-11T19:20:40.577Z,1.00
2023-03-11T19:23:07.821Z,0.80
2023-03-11T19:25:34.718Z,1.00
2023-03-11T19:28:01.524Z,0.82
2023-03-11T19:30:30.882Z,1.00
2023-03-11T19:32:57.445Z,1.00
2023-03-11T19:35:24.096Z,1.00
2023-03-11T19:37:56.719Z,0.90
2023-03-11T19:40:23.922Z,0.95
2023-03-11T19:42:50.550Z,0.88
2023-03-11T19:45:17.220Z,1.10
2023-03-11T19:47:46.502Z,1.00
2023-03-11T19:50:13.174Z,1.17
2023-03-11T19:52:39.790Z,1.05
2023-03-11T19:55:07.118Z,0.77
2023-03-11T19:57:33.764Z,0.82
2023-03-11T20:00:00.494Z,1.00
2023-03-11T20:02:27.149Z,1.05
2023-03-11T20:04:53.973Z,0.85
2023-03-11T20:07:20.623Z,0.90
2023-03-11T20:09:47.362Z,1.10
2023-03-11T20:12:14.087Z,1.13
2023-03-11T20:14:41.750Z,1.20
2023-03-11T20:17:08.825Z,1.20
2023-03-11T20:19:36.289Z,1.30
2023-03-11T20:22:03.137Z,1.30
2023-03-11T20:24:29.747Z,1.50
2023-03-11T20:26:56.452Z,1.25
2023-03-11T20:29:23.121Z,1.35
2023-03-11T20:31:51.304Z,1.20
2023-03-11T20:34:18.031Z,1.23
2023-03-11T20:36:44.822Z,1.27
2023-03-11T20:39:11.510Z,1.33
2023-03-11T20:41:40.364Z,1.17
2023-03-11T20:44:08.939Z,1.40
2023-03-11T20:46:35.670Z,1.20
2023-03-11T20:49:03.130Z,1.20
2023-03-11T20:51:29.976Z,1.23
2023-03-11T20:53:57.639Z,1.30
2023-03-11T20:56:26.032Z,1.30
2023-03-11T20:58:55.691Z,1.20
2023-03-11T21:01:25.365Z,1.30
2023-03-11T21:03:56.972Z,1.20
2023-03-11T21:06:27.187Z,1.20
2023-03-11T21:08:55.451Z,1.50
2023-03-11T21:11:23.736Z,1.30
2023-03-11T21:13:50.618Z,1.10
2023-03-11T21:16:17.679Z,1.15
2023-03-11T21:18:45.897Z,1.20
2023-03-11T21:21:15.533Z,1.15
2023-03-11T21:23:43.822Z,1.30
2023-03-11T21:26:15.126Z,1.20
2023-03-11T21:28:46.286Z,1.20
2023-03-11T21:31:18.799Z,1.50
2023-03-11T21:33:46.610Z,1.20
2023-03-11T21:36:14.375Z,1.30
2023-03-11T21:38:41.369Z,1.20
2023-03-11T21:41:11.275Z,1.15
2023-03-11T21:43:39.368Z,1.20
2023-03-11T21:46:07.077Z,1.33
2023-03-11T21:48:34.262Z,1.30
2023-03-11T21:51:01.124Z,1.30
2023-03-11T21:53:28.518Z,1.40
2023-03-11T21:55:55.434Z,1.50
2023-03-11T21:58:22.403Z,1.30
2023-03-11T22:00:49.227Z,1.27
2023-03-11T22:03:16.514Z,1.30
2023-03-11T22:05:43.241Z,1.50
2023-03-11T22:08:10.203Z,1.10
2023-03-11T22:10:38.142Z,1.63
2023-03-11T22:13:08.292Z,1.27
2023-03-11T22:15:38.205Z,1.25
2023-03-11T22:18:04.917Z,1.27
2023-03-11T22:20:31.620Z,1.20
2023-03-11T22:22:58.339Z,1.27
2023-03-11T22:25:25.247Z,1.20
2023-03-11T22:27:51.977Z,1.40
2023-03-11T22:30:18.565Z,1.60
2023-03-11T22:32:45.227Z,1.40
2023-03-11T22:35:11.856Z,1.23
2023-03-11T22:37:38.462Z,1.23
2023-03-11T22:40:08.761Z,1.20
2023-03-11T22:42:36.994Z,1.38
2023-03-11T22:45:07.047Z,1.20
2023-03-11T22:47:33.650Z,1.60
2023-03-11T22:50:00.258Z,1.40
2023-03-11T22:52:26.943Z,1.30
2023-03-11T22:54:53.755Z,1.40
2023-03-11T22:57:20.518Z,1.30
2023-03-11T22:59:47.206Z,1.15
2023-03-11T23:02:14.051Z,1.17
2023-03-11T23:04:44.531Z,1.20
2023-03-11T23:07:11.755Z,1.40
2023-03-11T23:09:38.581Z,1.35
2023-03-11T23:12:05.543Z,1.13
2023-03-11T23:14:44.007Z,1.25
2023-03-11T23:17:10.999Z,1.20
2023-03-11T23:19:37.608Z,1.20
2023-03-11T23:22:04.424Z,1.10
2023-03-11T23:24:30.986Z,1.40
2023-03-11T23:26:57.590Z,1.15
2023-03-11T23:29:24.332Z,1.05
2023-03-11T23:31:54.389Z,1.33
2023-03-11T23:34:21.120Z,1.20
2023-03-11T23:36:47.752Z,1.10
2023-03-11T23:39:17.266Z,1.42
2023-03-11T23:41:43.829Z,1.38
2023-03-11T23:44:10.470Z,1.10
2023-03-11T23:46:37.270Z,1.00
2023-03-11T23:49:03.950Z,1.17
2023-03-11T23:51:30.569Z,1.30
2023-03-11T23:53:57.210Z,1.27
2023-03-11T23:56:23.844Z,1.13
2023-03-11T23:58:50.419Z,1.20
